Time;durP1;ratioP1;P1;durP2;ratioP2;P2;SDS_P1;SDS_P2;PMS_P1;PMS_P2;Temp;Humidity;BMP_temperature;BMP_pressure;BME280_temperature;BME280_humidity;BME280_pressure;Samples;Min_cycle;Max_cycle;Signal;HPM_P1;HPM_P2
2022/11/18 00:01:30;;;;;;;7.45;3.88;;;8.00;99.90;;;;;;5058081;28;20036;-65
2022/11/18 00:03:55;;;;;;;8.27;4.00;;;7.90;99.90;;;;;;5055052;28;20332;-64
2022/11/18 00:06:24;;;;;;;9.32;3.90;;;7.90;99.90;;;;;;5054813;28;20033;-64
2022/11/18 00:08:51;;;;;;;6.70;3.60;;;8.00;99.90;;;;;;5054908;28;20469;-65
2022/11/18 00:14:22;;;;;;;9.10;4.50;;;7.90;99.90;;;;;;5055750;28;20052;-65
2022/11/18 00:16:59;;;;;;;10.88;4.00;;;7.90;99.90;;;;;;5056870;28;20330;-66
2022/11/18 00:19:31;;;;;;;7.25;4.00;;;7.90;99.90;;;;;;5041360;28;20163;-65
2022/11/18 00:21:57;;;;;;;8.25;4.10;;;7.90;99.90;;;;;;5059345;28;20077;-64
2022/11/18 00:24:23;;;;;;;7.38;4.53;;;7.90;99.90;;;;;;5057299;28;20033;-65
2022/11/18 00:26:49;;;;;;;10.02;4.68;;;7.90;99.90;;;;;;5061535;28;20036;-65
2022/11/18 00:29:15;;;;;;;9.43;4.78;;;7.90;99.90;;;;;;5061497;28;20041;-64
2022/11/18 00:31:41;;;;;;;8.23;4.65;;;7.80;99.90;;;;;;5062170;28;20032;-65
2022/11/18 00:34:09;;;;;;;7.40;4.40;;;7.80;99.90;;;;;;5053354;28;20136;-65
2022/11/18 00:36:35;;;;;;;7.93;4.40;;;7.80;99.90;;;;;;5055015;28;20033;-65
2022/11/18 00:39:00;;;;;;;9.65;5.00;;;7.80;99.90;;;;;;5057388;28;20476;-65
2022/11/18 00:42:49;;;;;;;10.02;5.00;;;7.80;99.90;;;;;;5044221;28;20044;-65
2022/11/18 00:44:12;;;;;;;8.75;5.00;;;7.80;99.90;;;;;;5059238;28;20048;-65
2022/11/18 00:46:37;;;;;;;9.48;5.20;;;7.80;99.90;;;;;;5061206;28;20525;-64
2022/11/18 00:49:03;;;;;;;11.38;5.30;;;7.80;99.90;;;;;;5059717;28;20370;-66
2022/11/18 00:51:28;;;;;;;9.38;4.82;;;7.80;99.90;;;;;;5057875;28;20036;-65
2022/11/18 00:53:54;;;;;;;11.48;5.60;;;7.80;99.90;;;;;;5056918;28;20045;-65
2022/11/18 00:56:19;;;;;;;9.30;5.05;;;7.80;99.90;;;;;;5056691;28;20044;-65
2022/11/18 00:58:45;;;;;;;9.57;4.78;;;7.70;99.90;;;;;;5042708;28;20040;-65
2022/11/18 01:01:10;;;;;;;8.70;5.10;;;7.70;99.90;;;;;;5060622;28;20249;-65
2022/11/18 01:03:36;;;;;;;12.15;5.30;;;7.80;99.90;;;;;;5057336;28;20037;-65
2022/11/18 01:06:02;;;;;;;9.00;5.10;;;7.80;99.90;;;;;;5058198;28;20078;-65
2022/11/18 01:08:27;;;;;;;10.55;5.63;;;7.80;99.90;;;;;;5057735;28;20064;-65
2022/11/18 01:10:53;;;;;;;8.85;5.30;;;7.80;99.90;;;;;;5055552;28;20044;-65
2022/11/18 01:13:21;;;;;;;9.75;5.22;;;7.80;99.90;;;;;;5057671;28;20138;-65
2022/11/18 01:15:50;;;;;;;11.77;5.70;;;7.80;99.90;;;;;;5058300;28;20350;-65
2022/11/18 01:18:17;;;;;;;8.60;5.55;;;7.80;99.90;;;;;;5057000;28;20374;-65
2022/11/18 01:20:44;;;;;;;8.57;5.72;;;7.70;99.90;;;;;;5061142;28;20044;-65
2022/11/18 01:23:10;;;;;;;11.77;6.22;;;7.80;99.90;;;;;;5057887;28;20515;-65
2022/11/18 01:25:37;;;;;;;8.70;6.18;;;7.70;99.90;;;;;;5058410;28;20187;-64
2022/11/18 01:28:04;;;;;;;8.35;5.20;;;7.70;99.90;;;;;;5060370;28;20079;-66
2022/11/18 01:30:32;;;;;;;11.45;5.55;;;7.80;99.90;;;;;;5061885;28;20032;-64
2022/11/18 01:32:58;;;;;;;11.43;6.38;;;7.80;99.90;;;;;;5053283;28;20076;-65
2022/11/18 01:35:23;;;;;;;12.57;6.00;;;7.80;99.90;;;;;;5054439;28;20437;-65
2022/11/18 01:37:49;;;;;;;10.75;5.32;;;7.80;99.90;;;;;;5057293;28;20170;-66
2022/11/18 01:40:15;;;;;;;11.45;5.57;;;7.80;99.90;;;;;;5041055;28;20049;-65
2022/11/18 01:42:40;;;;;;;8.95;5.85;;;7.70;99.90;;;;;;5058521;28;20036;-65
2022/11/18 01:45:36;;;;;;;13.45;6.25;;;7.70;99.90;;;;;;5058569;28;20573;-65
2022/11/18 01:48:07;;;;;;;10.02;6.32;;;7.80;99.90;;;;;;5059393;28;20059;-65
2022/11/18 01:50:35;;;;;;;11.13;6.28;;;7.70;99.90;;;;;;5054012;28;20044;-65
2022/11/18 01:53:10;;;;;;;10.52;6.70;;;7.70;99.90;;;;;;5036072;28;20461;-65
2022/11/18 01:55:40;;;;;;;12.07;6.55;;;7.70;99.90;;;;;;5053003;28;20462;-65
2022/11/18 01:58:19;;;;;;;12.82;6.93;;;7.70;99.90;;;;;;5057986;28;20092;-65
2022/11/18 02:00:45;;;;;;;12.05;7.10;;;7.60;99.90;;;;;;5058761;28;20095;-65
2022/11/18 02:03:11;;;;;;;11.68;6.97;;;7.60;99.90;;;;;;5056710;28;20036;-65
2022/11/18 02:05:39;;;;;;;11.45;6.68;;;7.60;99.90;;;;;;5061707;28;20032;-64
2022/11/18 02:08:06;;;;;;;13.88;6.97;;;7.60;99.90;;;;;;5054165;28;20056;-65
2022/11/18 02:10:32;;;;;;;10.35;6.80;;;7.60;99.90;;;;;;5038112;28;20398;-65
2022/11/18 02:12:58;;;;;;;14.40;7.32;;;7.60;99.90;;;;;;5038703;28;20091;-65
2022/11/18 02:15:59;;;;;;;15.55;7.95;;;7.60;99.90;;;;;;5059003;28;20063;-65
2022/11/18 02:18:53;;;;;;;13.05;7.00;;;7.60;99.90;;;;;;5057517;28;20040;-64
2022/11/18 02:21:19;;;;;;;12.13;6.83;;;7.60;99.90;;;;;;5023644;28;20087;-65
2022/11/18 02:24:13;;;;;;;12.35;7.82;;;7.60;99.90;;;;;;5040773;28;20069;-65
2022/11/18 02:27:13;;;;;;;11.15;8.00;;;7.60;99.90;;;;;;5060802;28;20033;-65
2022/11/18 02:29:48;;;;;;;12.63;8.68;;;7.60;99.90;;;;;;5014970;28;20494;-64
2022/11/18 02:32:42;;;;;;;14.60;9.30;;;7.50;99.90;;;;;;5050858;28;20041;-65
2022/11/18 02:35:29;;;;;;;13.40;10.10;;;7.60;99.90;;;;;;5055615;28;20157;-64
2022/11/18 02:38:02;;;;;;;14.32;10.90;;;7.50;99.90;;;;;;5035696;28;20299;-65
2022/11/18 02:40:34;;;;;;;15.40;10.63;;;7.50;99.90;;;;;;5054245;28;20422;-64
2022/11/18 02:43:08;;;;;;;15.18;13.07;;;7.50;99.90;;;;;;5058180;28;20053;-65
2022/11/18 02:45:35;;;;;;;17.48;13.52;;;7.50;99.90;;;;;;5054416;28;20049;-65
2022/11/18 02:48:06;;;;;;;16.80;14.13;;;7.50;99.90;;;;;;5060187;28;20132;-65
2022/11/18 02:50:34;;;;;;;18.52;14.30;;;7.50;99.90;;;;;;5038393;28;20140;-67
2022/11/18 02:53:03;;;;;;;17.45;15.57;;;7.50;99.90;;;;;;5053188;28;20056;-65
2022/11/18 02:55:31;;;;;;;17.75;15.95;;;7.50;99.90;;;;;;5057321;28;20041;-65
2022/11/18 02:57:58;;;;;;;21.92;18.17;;;7.50;99.90;;;;;;5037541;28;20118;-65
2022/11/18 03:00:24;;;;;;;21.63;17.90;;;7.50;99.90;;;;;;5058520;28;20067;-67
2022/11/18 03:02:49;;;;;;;21.42;18.25;;;7.60;99.90;;;;;;5039572;28;20032;-65
2022/11/18 03:05:32;;;;;;;22.83;19.48;;;7.50;99.90;;;;;;5058074;28;20390;-65
2022/11/18 03:08:07;;;;;;;23.13;19.35;;;7.50;99.90;;;;;;5061333;28;20107;-65
2022/11/18 03:10:43;;;;;;;21.75;19.27;;;7.60;99.90;;;;;;5051514;28;20068;-65
2022/11/18 03:13:23;;;;;;;26.83;19.17;;;7.60;99.90;;;;;;5053388;28;20037;-65
2022/11/18 03:16:15;;;;;;;23.50;20.55;;;7.60;99.90;;;;;;5055470;28;20068;-65
2022/11/18 03:18:52;;;;;;;25.48;21.33;;;7.60;99.90;;;;;;5048286;28;20167;-65
2022/11/18 03:21:32;;;;;;;24.65;20.42;;;7.70;99.90;;;;;;5055059;28;20048;-65
2022/11/18 03:24:19;;;;;;;27.20;21.77;;;7.70;99.90;;;;;;5056111;28;20044;-65
2022/11/18 03:26:51;;;;;;;27.20;23.15;;;7.70;99.90;;;;;;5057124;28;20044;-65
2022/11/18 03:29:31;;;;;;;27.13;22.80;;;7.70;99.90;;;;;;5058235;28;20350;-64
2022/11/18 03:32:05;;;;;;;31.23;24.85;;;7.80;99.90;;;;;;5054341;28;20037;-65
2022/11/18 03:34:38;;;;;;;32.42;27.15;;;7.80;99.90;;;;;;5021420;28;20037;-64
2022/11/18 03:37:10;;;;;;;33.92;27.40;;;7.80;99.90;;;;;;5035536;28;20045;-65
2022/11/18 03:39:41;;;;;;;32.30;26.75;;;7.80;99.90;;;;;;5051480;28;20342;-65
2022/11/18 03:42:14;;;;;;;34.03;27.55;;;7.90;99.90;;;;;;5056499;28;20051;-65
2022/11/18 03:44:45;;;;;;;30.55;26.30;;;7.90;99.90;;;;;;5036972;28;20045;-64
2022/11/18 03:47:16;;;;;;;34.38;27.20;;;7.90;99.90;;;;;;5055908;28;20041;-66
2022/11/18 03:49:51;;;;;;;34.03;27.25;;;7.90;99.90;;;;;;5055652;28;20036;-65
2022/11/18 03:52:21;;;;;;;33.63;27.63;;;7.90;99.90;;;;;;5051588;28;20089;-64
2022/11/18 03:54:49;;;;;;;31.58;26.27;;;7.90;99.90;;;;;;5051050;28;20433;-65
2022/11/18 03:57:24;;;;;;;31.70;25.55;;;7.90;99.90;;;;;;5053382;28;20063;-65
2022/11/18 04:00:01;;;;;;;32.17;26.45;;;7.90;99.90;;;;;;5055072;28;20052;-65
2022/11/18 04:02:28;;;;;;;35.47;26.83;;;7.90;99.90;;;;;;5055570;28;20033;-65
2022/11/18 04:04:55;;;;;;;29.17;25.00;;;8.00;99.90;;;;;;5050794;28;20108;-65
2022/11/18 04:07:31;;;;;;;30.85;26.20;;;8.00;99.90;;;;;;5052601;28;20603;-65
2022/11/18 04:10:22;;;;;;;35.17;26.73;;;8.00;99.90;;;;;;5051097;28;20378;-66
2022/11/18 04:12:59;;;;;;;32.05;26.83;;;8.00;99.90;;;;;;5053584;28;20789;-64
2022/11/18 04:15:25;;;;;;;31.13;26.13;;;8.00;99.90;;;;;;5038222;28;20037;-64
2022/11/18 04:17:50;;;;;;;31.10;27.35;;;8.00;99.90;;;;;;5054038;28;20088;-65
2022/11/18 04:20:18;;;;;;;30.40;24.52;;;8.00;99.90;;;;;;5057789;28;20319;-64
2022/11/18 04:22:44;;;;;;;30.85;26.92;;;8.00;99.90;;;;;;5057884;28;20099;-64
2022/11/18 04:25:10;;;;;;;28.98;25.33;;;8.00;99.90;;;;;;5033453;28;20431;-64
2022/11/18 04:27:36;;;;;;;30.42;25.27;;;8.10;99.90;;;;;;5056634;28;20331;-64
2022/11/18 04:30:03;;;;;;;29.52;25.63;;;8.00;99.90;;;;;;5058270;28;20052;-64
2022/11/18 04:32:28;;;;;;;30.83;26.02;;;8.00;99.90;;;;;;5034234;28;20117;-64
2022/11/18 04:34:54;;;;;;;33.65;26.15;;;8.00;99.90;;;;;;5055394;28;20029;-64
2022/11/18 04:37:20;;;;;;;32.67;26.45;;;8.00;99.90;;;;;;5051255;28;20033;-64
2022/11/18 04:39:45;;;;;;;30.00;25.50;;;8.00;99.90;;;;;;4997457;28;1113543;-64
2022/11/18 04:42:11;;;;;;;30.67;25.63;;;8.00;99.90;;;;;;5056487;28;20059;-64
2022/11/18 04:44:36;;;;;;;32.58;26.25;;;8.00;99.90;;;;;;5055860;28;20110;-66
2022/11/18 04:47:04;;;;;;;31.73;26.02;;;8.00;99.90;;;;;;5057330;28;20395;-64
2022/11/18 04:49:31;;;;;;;32.40;26.23;;;8.00;99.90;;;;;;5056263;28;20488;-64
2022/11/18 04:51:56;;;;;;;31.27;26.73;;;8.00;99.90;;;;;;5035805;28;20079;-64
2022/11/18 04:54:23;;;;;;;29.33;24.95;;;8.00;99.90;;;;;;5053798;28;20142;-64
2022/11/18 04:56:49;;;;;;;30.65;25.92;;;8.00;99.90;;;;;;5055575;28;20448;-63
2022/11/18 04:59:17;;;;;;;32.42;26.23;;;8.00;99.90;;;;;;5053845;28;20037;-65
2022/11/18 05:01:42;;;;;;;31.38;26.80;;;8.00;99.90;;;;;;5038532;28;20134;-64
2022/11/18 05:04:13;;;;;;;31.55;26.10;;;8.00;99.90;;;;;;5057899;28;20107;-64
2022/11/18 05:06:38;;;;;;;33.22;26.80;;;8.00;99.90;;;;;;5056159;28;20063;-65
2022/11/18 05:09:04;;;;;;;31.55;25.80;;;8.00;99.90;;;;;;5057969;28;20033;-64
2022/11/18 05:14:14;;;;;;;33.45;28.25;;;8.00;99.90;;;;;;5037748;28;20045;-64
2022/11/18 05:16:39;;;;;;;33.13;26.83;;;8.00;99.90;;;;;;5058847;28;20048;-63
2022/11/18 05:19:06;;;;;;;32.42;25.95;;;8.00;99.90;;;;;;5043373;28;20397;-63
2022/11/18 05:21:31;;;;;;;33.15;26.67;;;8.00;99.90;;;;;;5045005;28;20189;-64
2022/11/18 05:24:01;;;;;;;31.80;26.30;;;8.00;99.90;;;;;;5059867;28;20041;-64
2022/11/18 05:26:27;;;;;;;32.75;26.42;;;8.00;99.90;;;;;;5059146;28;20119;-64
2022/11/18 05:28:53;;;;;;;33.40;25.52;;;8.00;99.90;;;;;;5056874;28;20048;-64
2022/11/18 05:31:19;;;;;;;32.45;25.98;;;8.00;99.90;;;;;;5061198;28;20058;-64
2022/11/18 05:33:45;;;;;;;31.67;26.08;;;8.00;99.90;;;;;;5053505;28;20033;-64
2022/11/18 05:36:14;;;;;;;32.17;26.63;;;8.00;99.90;;;;;;5058135;28;20381;-67
2022/11/18 05:38:40;;;;;;;31.10;26.20;;;8.00;99.90;;;;;;5041447;28;20041;-64
2022/11/18 05:41:07;;;;;;;29.77;24.85;;;8.00;99.90;;;;;;5057604;28;20107;-65
2022/11/18 05:43:33;;;;;;;33.13;26.52;;;8.00;99.90;;;;;;5058099;28;20049;-64
2022/11/18 05:45:59;;;;;;;31.10;26.20;;;8.10;99.90;;;;;;5045139;28;20044;-64
2022/11/18 05:48:25;;;;;;;31.33;25.25;;;8.00;99.90;;;;;;5060354;28;20037;-64
2022/11/18 05:50:53;;;;;;;31.95;26.13;;;8.00;99.90;;;;;;5054603;28;20081;-64
2022/11/18 05:53:21;;;;;;;30.83;26.13;;;8.00;99.90;;;;;;5057924;28;20468;-64
2022/11/18 05:56:00;;;;;;;29.27;25.75;;;8.00;99.90;;;;;;5041162;28;20110;-64
2022/11/18 05:58:26;;;;;;;29.05;24.45;;;8.10;99.90;;;;;;5038540;28;20475;-64
2022/11/18 06:00:54;;;;;;;30.52;25.83;;;8.10;99.90;;;;;;5042115;28;20357;-66
2022/11/18 06:03:29;;;;;;;31.70;26.40;;;8.10;99.90;;;;;;5042329;28;20045;-66
2022/11/18 06:05:56;;;;;;;30.85;25.63;;;8.10;99.90;;;;;;5022831;28;20038;-65
2022/11/18 06:08:25;;;;;;;30.17;25.85;;;8.10;99.90;;;;;;5053235;28;20043;-65
2022/11/18 06:10:51;;;;;;;31.90;25.77;;;8.10;99.90;;;;;;5057714;28;20108;-64
2022/11/18 06:13:25;;;;;;;31.33;25.95;;;8.10;99.90;;;;;;5059937;28;20065;-64
2022/11/18 06:15:51;;;;;;;31.60;24.33;;;8.10;99.90;;;;;;5055342;28;20041;-64
2022/11/18 06:18:26;;;;;;;30.30;25.70;;;8.10;99.90;;;;;;5057815;28;20028;-64
2022/11/18 06:20:55;;;;;;;32.33;25.40;;;8.10;99.90;;;;;;5061218;28;20457;-64
2022/11/18 06:23:21;;;;;;;33.92;26.27;;;8.10;99.90;;;;;;5057717;28;20110;-64
2022/11/18 06:25:48;;;;;;;29.42;25.00;;;8.10;99.90;;;;;;5059192;28;20032;-64
2022/11/18 06:28:15;;;;;;;28.92;25.08;;;8.10;99.90;;;;;;5054630;28;20115;-65
2022/11/18 06:30:40;;;;;;;28.92;24.40;;;8.10;99.90;;;;;;5059641;28;20085;-63
2022/11/18 06:33:07;;;;;;;30.80;26.08;;;8.10;99.90;;;;;;5056638;28;20048;-65
2022/11/18 06:35:33;;;;;;;29.13;25.95;;;8.10;99.90;;;;;;5054043;28;20059;-64
2022/11/18 06:37:58;;;;;;;29.75;25.98;;;8.10;99.90;;;;;;5057779;28;20200;-65
2022/11/18 06:40:24;;;;;;;30.15;26.20;;;8.10;99.90;;;;;;5022940;28;20056;-63
2022/11/18 06:45:34;;;;;;;30.15;25.42;;;8.10;99.90;;;;;;5045866;28;20045;-64
2022/11/18 06:48:00;;;;;;;32.28;26.40;;;8.10;99.90;;;;;;5058745;28;20055;-68
2022/11/18 06:50:26;;;;;;;31.23;25.90;;;8.10;99.90;;;;;;5052124;28;20051;-68
2022/11/18 06:52:52;;;;;;;31.48;26.85;;;8.10;99.90;;;;;;5036262;28;20162;-68
2022/11/18 06:55:18;;;;;;;31.75;26.23;;;8.10;99.90;;;;;;5055659;28;20051;-67
2022/11/18 06:57:44;;;;;;;33.92;26.52;;;8.10;99.90;;;;;;5014290;28;20258;-64
2022/11/18 07:00:10;;;;;;;28.35;23.80;;;8.20;99.90;;;;;;5041395;28;20338;-65
2022/11/18 07:02:36;;;;;;;31.95;25.23;;;8.10;99.90;;;;;;5039700;28;20048;-65
2022/11/18 07:05:02;;;;;;;32.70;25.13;;;8.10;99.90;;;;;;5058982;28;20127;-65
2022/11/18 07:07:28;;;;;;;30.85;26.50;;;8.10;99.90;;;;;;5053684;28;20098;-64
2022/11/18 07:09:53;;;;;;;31.33;25.08;;;8.10;99.90;;;;;;5035286;28;20048;-67
2022/11/18 07:12:19;;;;;;;30.55;25.73;;;8.10;99.90;;;;;;5055949;28;20365;-64
2022/11/18 07:14:45;;;;;;;30.60;24.38;;;8.10;99.90;;;;;;5052436;28;20034;-64
2022/11/18 07:17:10;;;;;;;31.25;24.88;;;8.10;99.90;;;;;;5055147;28;20048;-65
2022/11/18 07:19:36;;;;;;;30.77;25.35;;;8.10;99.90;;;;;;5031636;28;20044;-66
2022/11/18 07:22:02;;;;;;;29.58;24.95;;;8.10;99.90;;;;;;5059043;28;20041;-65
2022/11/18 07:24:27;;;;;;;27.58;22.85;;;8.10;99.90;;;;;;5038244;28;20049;-65
2022/11/18 07:26:53;;;;;;;30.13;23.65;;;8.10;99.90;;;;;;5052254;28;20115;-65
2022/11/18 07:29:19;;;;;;;26.92;23.30;;;8.10;99.90;;;;;;5062336;28;20043;-68
2022/11/18 07:31:44;;;;;;;30.00;24.38;;;8.10;99.90;;;;;;5045859;28;20090;-66
2022/11/18 07:34:12;;;;;;;28.67;24.00;;;8.00;99.90;;;;;;5053714;28;20040;-64
2022/11/18 07:36:37;;;;;;;32.25;23.80;;;8.00;99.90;;;;;;5026306;28;20043;-66
2022/11/18 07:39:05;;;;;;;31.73;24.50;;;8.10;99.90;;;;;;5059209;28;20108;-65
2022/11/18 07:41:31;;;;;;;27.45;24.25;;;8.00;99.90;;;;;;5061261;28;20075;-64
2022/11/18 07:43:59;;;;;;;31.30;23.77;;;8.00;99.90;;;;;;5060656;28;20052;-62
2022/11/18 07:46:30;;;;;;;26.63;22.98;;;8.00;99.90;;;;;;5061369;28;20102;-66
2022/11/18 07:48:57;;;;;;;27.67;23.95;;;8.00;99.90;;;;;;5048139;28;20143;-65
2022/11/18 07:51:29;;;;;;;29.85;25.38;;;8.00;99.90;;;;;;5053446;28;20071;-65
2022/11/18 07:53:55;;;;;;;30.83;24.13;;;8.00;99.90;;;;;;5053153;28;20523;-67
2022/11/18 07:56:21;;;;;;;29.40;24.08;;;8.00;99.90;;;;;;5053821;28;20036;-66
2022/11/18 07:58:52;;;;;;;30.23;22.77;;;8.00;99.90;;;;;;5057702;28;20092;-66
2022/11/18 08:01:22;;;;;;;27.85;23.05;;;8.00;99.90;;;;;;5056675;28;20068;-68
2022/11/18 08:03:48;;;;;;;27.95;22.95;;;8.00;99.90;;;;;;5039708;28;20040;-65
2022/11/18 08:06:16;;;;;;;25.55;21.88;;;8.00;99.90;;;;;;5054795;28;20485;-66
2022/11/18 08:08:42;;;;;;;25.90;21.42;;;7.90;99.90;;;;;;5054002;28;20036;-67
2022/11/18 08:11:10;;;;;;;24.85;21.17;;;8.00;99.90;;;;;;5054808;28;20455;-66
2022/11/18 08:13:36;;;;;;;25.17;20.25;;;8.00;99.90;;;;;;5052308;28;20123;-67
2022/11/18 08:16:10;;;;;;;27.25;21.77;;;8.00;99.90;;;;;;5055126;28;20040;-65
2022/11/18 08:18:35;;;;;;;24.25;20.30;;;8.00;99.90;;;;;;5040900;28;20131;-67
2022/11/18 08:21:03;;;;;;;25.60;19.88;;;8.00;99.90;;;;;;5058045;28;20044;-66
2022/11/18 08:23:28;;;;;;;23.05;19.08;;;8.00;99.90;;;;;;5038435;28;20041;-65
2022/11/18 08:26:05;;;;;;;23.85;19.27;;;8.00;99.90;;;;;;5056679;28;20834;-65
2022/11/18 08:28:31;;;;;;;20.90;17.60;;;8.00;99.90;;;;;;5055856;28;20047;-66
2022/11/18 08:30:57;;;;;;;22.10;18.20;;;8.10;99.90;;;;;;5059566;28;20041;-65
2022/11/18 08:33:24;;;;;;;20.45;17.85;;;8.00;99.90;;;;;;5045153;28;20137;-65
2022/11/18 08:35:50;;;;;;;20.83;17.33;;;8.10;99.90;;;;;;5044523;28;20094;-65
2022/11/18 08:38:16;;;;;;;21.95;17.35;;;8.10;99.90;;;;;;5011946;28;20042;-65
2022/11/18 08:40:44;;;;;;;19.50;16.77;;;8.00;99.90;;;;;;5050290;28;20467;-67
2022/11/18 08:43:10;;;;;;;18.73;16.80;;;8.00;99.90;;;;;;5062352;28;20373;-65
2022/11/18 08:45:38;;;;;;;20.13;16.02;;;8.00;99.90;;;;;;5060212;28;20075;-67
2022/11/18 08:48:03;;;;;;;19.92;16.30;;;8.10;99.90;;;;;;5061888;28;20101;-66
2022/11/18 08:50:29;;;;;;;20.63;16.80;;;8.10;99.90;;;;;;5058578;28;20032;-65
2022/11/18 08:52:54;;;;;;;20.88;16.73;;;8.00;99.90;;;;;;5055539;28;20057;-65
2022/11/18 08:55:20;;;;;;;19.65;16.67;;;8.10;99.90;;;;;;5059635;28;20124;-64
2022/11/18 08:57:46;;;;;;;21.92;18.55;;;8.10;99.90;;;;;;5056776;28;20462;-64
2022/11/18 09:00:12;;;;;;;20.48;17.60;;;8.10;99.90;;;;;;5060197;28;20086;-65
2022/11/18 09:02:38;;;;;;;19.60;17.08;;;8.10;99.90;;;;;;5060269;28;20063;-66
2022/11/18 09:05:04;;;;;;;20.77;17.08;;;8.10;99.90;;;;;;5040525;28;20041;-65
2022/11/18 09:07:30;;;;;;;18.25;16.25;;;8.10;99.90;;;;;;5024500;28;20051;-65
2022/11/18 09:09:56;;;;;;;18.48;16.15;;;8.10;99.90;;;;;;5057034;28;20422;-64
2022/11/18 09:12:21;;;;;;;18.63;16.25;;;8.10;99.90;;;;;;5057876;28;20025;-65
2022/11/18 09:14:47;;;;;;;19.05;16.42;;;8.10;99.90;;;;;;5058719;28;20602;-64
2022/11/18 09:17:14;;;;;;;18.98;15.98;;;8.10;99.90;;;;;;5058531;28;20036;-64
2022/11/18 09:19:40;;;;;;;19.63;16.10;;;8.10;99.90;;;;;;5060655;28;20123;-64
2022/11/18 09:22:06;;;;;;;19.38;17.27;;;8.20;99.90;;;;;;5059263;28;20435;-64
2022/11/18 09:24:32;;;;;;;19.52;15.85;;;8.20;99.90;;;;;;5058053;28;20646;-65
2022/11/18 09:27:01;;;;;;;18.08;15.35;;;8.20;99.90;;;;;;5059678;28;20325;-64
2022/11/18 09:29:26;;;;;;;18.92;15.55;;;8.20;99.90;;;;;;5062559;28;20103;-64
2022/11/18 09:31:53;;;;;;;19.52;15.43;;;8.20;99.90;;;;;;5059689;28;20041;-65
2022/11/18 09:34:18;;;;;;;19.65;15.55;;;8.20;99.90;;;;;;5052851;28;20072;-65
2022/11/18 09:36:44;;;;;;;18.23;15.52;;;8.20;99.90;;;;;;5057855;28;20079;-64
2022/11/18 09:39:09;;;;;;;20.40;16.23;;;8.10;99.90;;;;;;5038728;28;20621;-64
2022/11/18 09:41:44;;;;;;;18.13;15.20;;;8.20;99.90;;;;;;5043479;28;20041;-65
2022/11/18 09:44:32;;;;;;;17.80;14.82;;;8.20;99.90;;;;;;5059675;28;20037;-66
2022/11/18 09:47:30;;;;;;;18.65;14.68;;;8.20;99.90;;;;;;5056930;28;20522;-64
2022/11/18 09:50:12;;;;;;;23.13;17.05;;;8.20;99.90;;;;;;5038008;28;20029;-65
2022/11/18 09:52:41;;;;;;;19.25;15.15;;;8.30;99.90;;;;;;5052756;28;20359;-64
2022/11/18 09:55:12;;;;;;;15.88;13.95;;;8.30;99.90;;;;;;5054132;28;20140;-63
2022/11/18 09:57:53;;;;;;;15.70;13.75;;;8.30;99.90;;;;;;5049669;28;20068;-63
2022/11/18 10:00:24;;;;;;;15.73;13.30;;;8.30;99.90;;;;;;5057376;28;20119;-64
2022/11/18 10:03:08;;;;;;;17.10;13.57;;;8.30;99.90;;;;;;5060525;28;20051;-63
2022/11/18 10:06:15;;;;;;;16.45;13.88;;;8.30;99.90;;;;;;5042554;28;20041;-63
2022/11/18 10:08:59;;;;;;;16.02;13.57;;;8.40;99.90;;;;;;5045806;28;20040;-63
2022/11/18 10:11:44;;;;;;;15.35;12.90;;;8.30;99.90;;;;;;5055087;28;20347;-64
2022/11/18 10:14:34;;;;;;;15.15;13.55;;;8.30;99.90;;;;;;5058120;28;20047;-64
2022/11/18 10:17:40;;;;;;;16.20;13.05;;;8.30;99.90;;;;;;5057876;28;20136;-65
2022/11/18 10:20:19;;;;;;;16.20;13.02;;;8.30;99.90;;;;;;5060536;28;20123;-64
2022/11/18 10:22:53;;;;;;;16.65;13.05;;;8.20;99.90;;;;;;5054689;28;20418;-64
2022/11/18 10:25:19;;;;;;;15.68;12.50;;;8.20;99.90;;;;;;5053449;28;20358;-64
2022/11/18 10:27:47;;;;;;;16.83;13.10;;;8.20;99.90;;;;;;5059025;28;20032;-64
2022/11/18 10:30:15;;;;;;;17.17;13.95;;;8.20;99.90;;;;;;5062202;28;20036;-64
2022/11/18 10:33:18;;;;;;;17.95;13.38;;;8.20;99.90;;;;;;5054664;28;20121;-66
2022/11/18 10:35:43;;;;;;;15.98;13.82;;;8.20;99.90;;;;;;5035586;28;20189;-64
2022/11/18 10:38:12;;;;;;;20.17;13.45;;;8.20;99.90;;;;;;5057735;28;20081;-64
2022/11/18 10:41:00;;;;;;;22.75;14.23;;;8.20;99.90;;;;;;5055716;28;20134;-63
2022/11/18 10:43:54;;;;;;;17.92;14.90;;;8.20;99.90;;;;;;5058291;28;20048;-65
2022/11/18 10:46:38;;;;;;;18.58;14.23;;;8.20;99.90;;;;;;5054968;28;20374;-65
2022/11/18 10:49:09;;;;;;;18.23;14.60;;;8.20;99.90;;;;;;5055667;28;20040;-64
2022/11/18 10:51:43;;;;;;;17.10;14.00;;;8.30;99.90;;;;;;5051869;28;20050;-65
2022/11/18 10:54:15;;;;;;;17.02;14.20;;;8.30;99.90;;;;;;5053366;28;20036;-64
2022/11/18 10:56:45;;;;;;;19.67;15.40;;;8.20;99.90;;;;;;5039919;28;20048;-63
2022/11/18 10:59:30;;;;;;;20.83;15.77;;;8.40;99.90;;;;;;5055981;28;20135;-64
2022/11/18 11:02:11;;;;;;;18.92;15.68;;;8.30;99.90;;;;;;5057323;28;20417;-65
2022/11/18 11:04:38;;;;;;;22.98;16.52;;;8.30;99.90;;;;;;5051234;28;20037;-63
2022/11/18 11:07:34;;;;;;;20.67;16.73;;;8.30;99.90;;;;;;5054537;28;20124;-64
2022/11/18 11:10:03;;;;;;;22.13;17.23;;;8.30;99.90;;;;;;5017349;28;20049;-65
2022/11/18 11:12:31;;;;;;;21.20;17.20;;;8.30;99.90;;;;;;5057538;28;20051;-64
2022/11/18 11:15:07;;;;;;;22.70;17.77;;;8.30;99.90;;;;;;5054987;28;20042;-64
2022/11/18 11:17:44;;;;;;;23.13;17.65;;;8.40;99.90;;;;;;5054332;28;20037;-64
2022/11/18 11:20:22;;;;;;;21.55;17.25;;;8.30;99.90;;;;;;5056738;28;20450;-64
2022/11/18 11:22:48;;;;;;;22.08;17.52;;;8.30;99.90;;;;;;5057540;28;20041;-64
2022/11/18 11:25:39;;;;;;;21.63;17.30;;;8.30;99.90;;;;;;5053046;28;20055;-64
2022/11/18 11:28:30;;;;;;;19.52;15.82;;;8.30;99.90;;;;;;5057358;28;20128;-64
2022/11/18 11:31:26;;;;;;;18.15;15.25;;;8.30;99.90;;;;;;5056062;28;20083;-64
2022/11/18 11:34:19;;;;;;;19.90;15.90;;;8.40;99.90;;;;;;5050551;28;20037;-65
2022/11/18 11:37:17;;;;;;;19.25;15.57;;;8.30;99.90;;;;;;5055185;28;20033;-64
2022/11/18 11:39:58;;;;;;;22.02;17.88;;;8.30;99.90;;;;;;5053581;28;20170;-64
2022/11/18 11:42:59;;;;;;;18.40;15.80;;;8.40;99.90;;;;;;5056647;28;20367;-65
2022/11/18 11:45:59;;;;;;;19.17;15.63;;;8.40;99.90;;;;;;5058585;28;20230;-64
2022/11/18 11:48:51;;;;;;;25.27;20.83;;;8.30;99.90;;;;;;5051647;28;20036;-63
2022/11/18 11:51:32;;;;;;;18.55;16.38;;;8.30;99.90;;;;;;5052933;28;20037;-64
2022/11/18 11:54:32;;;;;;;20.52;17.77;;;8.20;99.90;;;;;;5034666;28;20509;-63
2022/11/18 11:57:04;;;;;;;24.35;21.73;;;8.20;99.90;;;;;;5054750;28;20064;-63
2022/11/18 12:00:00;;;;;;;19.17;15.75;;;8.10;99.90;;;;;;5058126;28;20068;-63
2022/11/18 12:02:43;;;;;;;18.58;16.10;;;8.20;99.90;;;;;;5056171;28;20042;-64
2022/11/18 12:05:35;;;;;;;19.55;17.42;;;8.10;99.90;;;;;;5035007;28;20041;-64
2022/11/18 12:08:19;;;;;;;20.08;17.67;;;8.10;99.90;;;;;;5032933;28;20049;-66
2022/11/18 12:10:55;;;;;;;23.63;19.65;;;8.20;99.90;;;;;;5056520;28;20117;-65
2022/11/18 12:13:50;;;;;;;21.92;17.90;;;8.20;99.90;;;;;;5056043;28;20037;-66
2022/11/18 12:16:47;;;;;;;25.13;20.27;;;8.10;99.90;;;;;;5040603;28;20117;-65
2022/11/18 12:19:19;;;;;;;19.63;17.33;;;8.10;99.90;;;;;;5062162;28;20386;-65
2022/11/18 12:21:45;;;;;;;22.38;19.98;;;8.10;99.90;;;;;;5057233;28;20041;-64
2022/11/18 12:24:30;;;;;;;21.45;19.10;;;8.10;99.90;;;;;;5061956;28;20094;-63
2022/11/18 12:26:58;;;;;;;20.27;17.27;;;8.00;99.90;;;;;;5058496;28;20060;-64
2022/11/18 12:29:28;;;;;;;19.98;17.73;;;8.00;99.90;;;;;;5062830;28;20032;-65
2022/11/18 12:31:57;;;;;;;19.60;17.50;;;8.00;99.90;;;;;;5053245;28;20713;-64
2022/11/18 12:34:28;;;;;;;18.95;16.60;;;7.90;99.90;;;;;;5057890;28;20049;-64
2022/11/18 12:36:55;;;;;;;19.33;16.25;;;7.80;99.90;;;;;;5054498;28;20177;-63
2022/11/18 12:39:26;;;;;;;20.10;17.40;;;7.90;99.90;;;;;;5053976;28;20112;-64
2022/11/18 12:44:47;;;;;;;18.77;15.85;;;7.80;99.90;;;;;;5057320;28;20048;-66
2022/11/18 12:47:34;;;;;;;18.55;16.05;;;7.70;99.90;;;;;;5062866;28;20042;-64
2022/11/18 12:50:11;;;;;;;18.02;15.77;;;7.70;99.90;;;;;;5055073;28;20037;-68
2022/11/18 12:52:36;;;;;;;18.17;16.27;;;7.60;99.90;;;;;;5051953;28;20115;-63
2022/11/18 12:55:10;;;;;;;17.67;14.15;;;7.70;99.90;;;;;;5060871;28;20337;-65
2022/11/18 12:57:40;;;;;;;15.02;13.20;;;7.70;99.90;;;;;;5056751;28;20040;-63
2022/11/18 13:00:50;;;;;;;15.85;13.38;;;7.70;99.90;;;;;;5045530;28;20083;-65
2022/11/18 13:03:27;;;;;;;13.80;12.40;;;7.70;99.90;;;;;;5055504;28;20041;-65
2022/11/18 13:06:04;;;;;;;16.52;13.07;;;7.70;99.90;;;;;;5055710;28;20044;-63
2022/11/18 13:08:30;;;;;;;14.13;12.25;;;7.60;99.90;;;;;;5041300;28;20451;-64
2022/11/18 13:17:50;;;;;;;15.35;11.88;;;7.50;99.90;;;;;;5061472;28;20118;-65
2022/11/18 13:19:35;;;;;;;16.20;11.40;;;7.40;99.90;;;;;;5058244;28;20037;-64
2022/11/18 13:24:49;;;;;;;12.25;10.88;;;7.40;99.90;;;;;;5060975;28;20040;-64